createdAt,value
2017-02-09T01:53:24.941Z,-1.79
2017-02-09T01:55:03.594Z,-1.82
2017-02-09T01:55:49.018Z,-1.96
2017-02-09T01:56:36.556Z,-1.86
2017-02-09T01:57:17.619Z,-1.92
2017-02-09T01:57:58.074Z,-1.93
2017-02-09T01:58:38.453Z,-1.93
2017-02-09T01:59:20.148Z,-1.94
2017-02-09T02:00:00.586Z,-1.92
2017-02-09T02:00:40.959Z,-1.94
2017-02-09T02:01:21.369Z,-2.02
2017-02-09T02:02:01.790Z,-1.94
2017-02-09T02:02:42.198Z,-1.96
2017-02-09T02:03:22.674Z,-2.02
2017-02-09T02:04:03.068Z,-1.97
2017-02-09T02:04:45.365Z,-2.1
2017-02-09T02:05:25.779Z,-1.99
2017-02-09T02:06:06.208Z,-1.97
2017-02-09T02:06:46.591Z,-2.04
2017-02-09T02:07:26.944Z,-2.07
2017-02-09T02:08:07.377Z,-2.08
2017-02-09T02:08:47.839Z,-2.07
2017-02-09T02:09:28.244Z,-2.04
2017-02-09T02:10:08.638Z,-2.1
2017-02-09T02:10:49.060Z,-2.08
2017-02-09T02:11:29.504Z,-2.04
2017-02-09T02:12:11.633Z,-2.02
2017-02-09T02:12:52.050Z,-2.07
2017-02-09T02:13:32.489Z,-2.07
2017-02-09T02:14:12.887Z,-2.04
2017-02-09T02:14:53.389Z,-2.07
2017-02-09T02:15:33.738Z,-2.02
2017-02-09T02:16:15.137Z,-2.07
2017-02-09T02:16:55.567Z,-2.05
2017-02-09T02:17:36.012Z,-2.05
2017-02-09T02:18:16.397Z,-2.08
2017-02-09T02:18:56.819Z,-2.14
2017-02-09T02:19:37.241Z,-2.1
2017-02-09T02:23:24.496Z,-2.07
2017-02-09T02:24:10.799Z,-2.05
2017-02-09T02:24:59.698Z,-2.04
2017-02-09T02:25:47.630Z,-2.07
2017-02-09T02:26:36.092Z,-2.05
2017-02-09T02:27:24.798Z,-2.05
2017-02-09T04:17:03.224Z,-2.39
2017-02-09T04:20:26.106Z,-2.33
2017-02-09T04:23:47.768Z,-2.47
2017-02-09T04:24:32.749Z,-2.44
2017-02-09T04:32:32.855Z,-2.52
2017-02-09T04:33:13.856Z,-2.48
2017-02-09T04:33:57.589Z,-2.5
2017-02-09T04:36:12.596Z,-2.51
2017-02-09T04:38:27.485Z,-2.61
2017-02-09T04:39:08.365Z,-2.66
2017-02-09T04:39:50.100Z,-2.62
2017-02-09T04:40:30.581Z,-2.63
2017-02-09T04:41:10.933Z,-2.69
2017-02-09T04:41:51.625Z,-2.65
2017-02-09T04:42:31.993Z,-2.68
2017-02-09T04:43:12.389Z,-2.69
2017-02-09T04:43:53.636Z,-2.65
2017-02-09T04:44:34.004Z,-2.65
2017-02-09T04:49:51.832Z,-2.78
2017-02-09T04:54:46.182Z,-2.81
2017-02-09T04:56:33.620Z,-2.81
2017-02-09T04:57:15.029Z,-2.81
2017-02-09T04:59:29.793Z,-2.91
2017-02-09T05:02:49.449Z,-2.89
2017-02-09T05:06:09.635Z,-3.02
2017-02-09T05:06:51.276Z,-2.94
2017-02-09T05:09:04.941Z,-3.05
2017-02-09T05:11:05.332Z,-3.09
2017-02-09T05:14:51.514Z,-3.19
2017-02-09T05:16:38.842Z,-3.22
2017-02-09T05:18:26.295Z,-3.29
2017-02-09T05:20:39.929Z,-3.32
2017-02-09T05:25:33.143Z,-3.25
2017-02-09T05:33:31.464Z,-3.4
2017-02-09T05:34:18.418Z,-3.44
2017-02-09T05:34:58.851Z,-3.44
2017-02-09T05:35:40.144Z,-3.47
2017-02-09T05:36:20.638Z,-3.48
2017-02-09T05:37:01.572Z,-3.44
2017-02-09T05:37:42.669Z,-3.48
2017-02-09T05:38:23.722Z,-3.46
2017-02-09T05:39:04.972Z,-3.46
2017-02-09T05:39:45.375Z,-3.44
2017-02-09T05:40:27.212Z,-3.44
2017-02-09T05:41:09.615Z,-3.47
2017-02-09T05:41:50.014Z,-3.46
2017-02-09T05:42:30.413Z,-3.46
2017-02-09T05:46:16.905Z,-3.55
2017-02-09T05:46:58.312Z,-3.62
2017-02-09T05:47:40.357Z,-3.55
2017-02-09T05:48:20.785Z,-3.61
2017-02-09T05:49:01.198Z,-3.61
2017-02-09T05:49:41.593Z,-3.58
2017-02-09T05:50:25.870Z,-3.64
2017-02-09T05:51:06.279Z,-3.58
2017-02-09T05:51:46.681Z,-3.56
2017-02-09T05:52:27.936Z,-3.43
2017-02-09T05:53:08.272Z,-3.56
2017-02-09T05:53:48.692Z,-3.53
2017-02-09T05:54:29.326Z,-3.58
2017-02-09T05:55:09.764Z,-3.59
2017-02-09T05:55:50.119Z,-3.56
2017-02-09T05:56:30.553Z,-3.59
2017-02-09T05:57:11.871Z,-3.59
2017-02-09T05:57:52.295Z,-3.55
2017-02-09T05:58:33.628Z,-3.58
2017-02-09T05:59:14.040Z,-3.62
2017-02-09T05:59:54.532Z,-3.58
2017-02-09T06:00:34.878Z,-3.56
2017-02-09T06:01:15.319Z,-3.59
2017-02-09T06:01:55.718Z,-3.56
2017-02-09T06:02:36.155Z,-3.66
2017-02-09T06:03:17.099Z,-3.55
2017-02-09T06:03:57.517Z,-3.55
2017-02-09T06:04:39.544Z,-3.55
2017-02-09T06:05:19.963Z,-3.59
2017-02-09T06:06:01.281Z,-3.59
2017-02-09T06:06:44.379Z,-3.62
2017-02-09T06:07:24.781Z,-3.58
2017-02-09T06:08:05.392Z,-3.56
2017-02-09T06:08:46.290Z,-3.56
2017-02-09T06:09:26.664Z,-3.62
2017-02-09T06:10:07.128Z,-3.62
2017-02-09T06:10:48.349Z,-3.61
2017-02-09T06:11:29.437Z,-3.61
2017-02-09T06:12:10.627Z,-3.66
2017-02-09T06:12:53.450Z,-3.66
2017-02-09T06:13:33.940Z,-3.66
2017-02-09T06:14:14.366Z,-3.65
2017-02-09T06:14:54.831Z,-3.74
2017-02-09T06:15:35.882Z,-3.69
2017-02-09T06:16:16.277Z,-3.66
2017-02-09T06:16:56.688Z,-3.68
2017-02-09T06:17:37.069Z,-3.77
2017-02-09T06:18:18.308Z,-3.68
2017-02-09T06:18:58.681Z,-3.65
2017-02-09T06:19:39.066Z,-3.75
2017-02-09T06:20:19.527Z,-3.65
2017-02-09T06:20:59.902Z,-3.68
2017-02-09T06:21:40.272Z,-3.68
2017-02-09T06:22:20.657Z,-3.74
2017-02-09T06:23:01.874Z,-3.69
2017-02-09T06:23:43.933Z,-3.68
2017-02-09T06:24:24.943Z,-3.74
2017-02-09T06:25:06.298Z,-3.66
2017-02-09T06:25:46.671Z,-3.75
2017-02-09T06:26:27.165Z,-3.74
2017-02-09T06:27:09.456Z,-3.83
2017-02-09T06:27:50.437Z,-3.77
2017-02-09T06:28:32.489Z,-3.71
2017-02-09T06:29:14.466Z,-3.74
2017-02-09T06:29:56.496Z,-3.66
2017-02-09T06:30:39.270Z,-3.68
2017-02-09T06:31:21.450Z,-3.77
2017-02-09T06:32:02.801Z,-3.74
2017-02-09T06:32:44.101Z,-3.71
2017-02-09T06:33:25.815Z,-3.71
2017-02-09T06:34:07.050Z,-3.65
2017-02-09T06:34:47.492Z,-3.69
2017-02-09T06:35:28.890Z,-3.71
2017-02-09T06:36:09.316Z,-3.71
2017-02-09T06:36:51.292Z,-3.74
2017-02-09T06:37:31.658Z,-3.68
2017-02-09T06:38:12.997Z,-3.65
2017-02-09T06:38:53.388Z,-3.61
2017-02-09T06:39:34.562Z,-3.71
2017-02-09T06:40:19.774Z,-3.59
2017-02-09T06:41:01.860Z,-3.65
2017-02-09T06:41:42.443Z,-3.64
2017-02-09T06:42:22.833Z,-3.68
2017-02-09T06:43:04.891Z,-3.64
2017-02-09T06:43:46.094Z,-3.59
2017-02-09T06:44:27.483Z,-3.62
2017-02-09T06:45:07.988Z,-3.61
2017-02-09T06:45:48.511Z,-3.53
2017-02-09T06:46:29.065Z,-3.59
2017-02-09T06:47:09.518Z,-3.55
2017-02-09T06:47:51.366Z,-3.59
2017-02-09T06:48:31.713Z,-3.58
2017-02-09T06:49:12.315Z,-3.53
2017-02-09T06:49:52.873Z,-3.58
2017-02-09T06:50:33.358Z,-3.51
2017-02-09T06:51:13.955Z,-3.5
2017-02-09T06:51:54.807Z,-3.51
2017-02-09T06:52:35.479Z,-3.55
2017-02-09T06:53:15.988Z,-3.44
2017-02-09T06:53:56.283Z,-3.44
2017-02-09T06:54:36.907Z,-3.48
2017-02-09T06:55:17.385Z,-3.43
2017-02-09T06:55:57.974Z,-3.4
2017-02-09T06:56:40.050Z,-3.36
2017-02-09T06:57:20.463Z,-3.4
2017-02-09T06:58:01.011Z,-3.23
2017-02-09T06:58:41.519Z,-3.3
2017-02-09T06:59:22.003Z,-3.33
2017-02-09T07:00:02.545Z,-3.19
2017-02-09T07:00:43.077Z,-3.27
2017-02-09T07:01:23.630Z,-3.26
2017-02-09T07:02:04.241Z,-3.17
2017-02-09T07:02:44.704Z,-3.17
2017-02-09T07:03:25.353Z,-3.15
2017-02-09T07:04:05.827Z,-3.12
2017-02-09T07:04:47.049Z,-3.09
2017-02-09T07:05:27.506Z,-3.11
2017-02-09T07:06:08.449Z,-3.07
2017-02-09T07:06:48.860Z,-3.01
2017-02-09T07:07:31.872Z,-3.07
2017-02-09T07:08:12.296Z,-3.04
2017-02-09T07:08:54.298Z,-3.05
2017-02-09T07:09:35.533Z,-2.87
2017-02-09T07:10:18.350Z,-2.94
2017-02-09T07:10:59.558Z,-2.9
2017-02-09T07:11:40.928Z,-2.89
2017-02-09T07:12:23.775Z,-2.8
2017-02-09T07:13:05.859Z,-2.86
2017-02-09T07:13:47.273Z,-2.78
2017-02-09T07:14:29.355Z,-2.78
2017-02-09T07:15:09.786Z,-2.61
2017-02-09T07:15:50.925Z,-2.54
2017-02-09T07:16:32.128Z,-2.48
2017-02-09T07:17:14.018Z,-2.48
2017-02-09T07:17:54.514Z,-2.51
2017-02-09T07:18:38.453Z,-2.42
2017-02-09T07:20:53.742Z,-2.2
2017-02-09T07:21:34.366Z,-2.25
2017-02-09T07:22:14.723Z,-2.13
2017-02-09T07:22:55.321Z,-2.07
2017-02-09T07:23:36.526Z,-2.1
2017-02-09T07:24:18.390Z,-2
2017-02-09T07:24:59.752Z,-1.96
2017-02-09T07:25:44.010Z,-1.92
2017-02-09T07:26:26.366Z,-1.84
2017-02-09T07:27:07.569Z,-1.75
2017-02-09T07:27:48.058Z,-1.71
2017-02-09T07:28:31.095Z,-1.68
2017-02-09T07:29:11.490Z,-1.63
2017-02-09T07:29:51.911Z,-1.66
2017-02-09T07:30:35.215Z,-1.54
2017-02-09T07:31:18.990Z,-1.64
2017-02-09T07:32:00.225Z,-1.53
2017-02-09T07:32:41.947Z,-1.43
2017-02-09T07:33:23.192Z,-1.46
2017-02-09T07:34:03.569Z,-1.42
2017-02-09T07:34:44.127Z,-1.38
2017-02-09T07:35:24.595Z,-1.38
2017-02-09T07:36:08.475Z,-1.4
2017-02-09T07:36:50.422Z,-1.38
2017-02-09T07:37:31.987Z,-1.3
2017-02-09T07:38:13.446Z,-1.36
2017-02-09T07:38:58.417Z,-1.35
2017-02-09T07:39:39.539Z,-1.33
2017-02-09T07:40:20.049Z,-1.29
2017-02-09T07:41:00.592Z,-1.29
2017-02-09T07:41:40.986Z,-1.35
2017-02-09T07:42:21.898Z,-1.4
2017-02-09T07:43:02.248Z,-1.29
2017-02-09T07:43:42.652Z,-1.32
2017-02-09T07:44:25.438Z,-1.38
2017-02-09T07:45:08.514Z,-1.33
2017-02-09T07:45:48.877Z,-1.24
2017-02-09T07:46:30.000Z,-1.22
2017-02-09T07:47:11.154Z,-1.24
2017-02-09T07:47:51.735Z,-1.18
2017-02-09T07:48:34.877Z,-1.19
2017-02-09T07:49:15.328Z,-1.17
2017-02-09T07:49:55.755Z,-1.11
2017-02-09T07:50:37.464Z,-1.04
2017-02-09T07:51:17.883Z,-1.11
2017-02-09T07:52:03.097Z,-1.03
2017-02-09T07:52:45.876Z,-1.06
2017-02-09T07:53:27.867Z,-1
2017-02-09T07:54:08.888Z,-0.85
2017-02-09T07:54:50.236Z,-0.89
2017-02-09T07:55:32.111Z,-0.82
2017-02-09T07:57:48.666Z,-0.72
2017-02-09T07:58:31.050Z,-0.62
2017-02-09T07:59:11.459Z,-0.63
2017-02-09T07:59:52.548Z,-0.44
2017-02-09T08:00:33.456Z,-0.36
2017-02-09T08:01:14.659Z,-0.35
2017-02-09T08:01:55.818Z,-0.23
2017-02-09T08:02:36.302Z,-0.12
2017-02-09T08:03:17.020Z,-0.07
2017-02-09T08:03:57.680Z,-0.07
2017-02-09T08:04:38.294Z,-0.03
2017-02-09T08:05:19.403Z,0.06
2017-02-09T08:06:00.479Z,0.13
2017-02-09T08:06:40.857Z,0.15
2017-02-09T08:07:21.485Z,0.2
2017-02-09T08:08:01.806Z,0.3
2017-02-09T08:08:42.342Z,0.34
2017-02-09T08:09:22.618Z,0.36
2017-02-09T08:10:03.069Z,0.44
2017-02-09T08:10:43.451Z,0.55
2017-02-09T08:11:27.634Z,0.61
2017-02-09T08:12:08.806Z,0.76
2017-02-09T08:12:50.838Z,0.81
2017-02-09T08:13:31.281Z,0.82
2017-02-09T08:15:46.142Z,0.85
2017-02-09T08:16:29.294Z,0.86
2017-02-09T08:17:13.151Z,0.89
2017-02-09T08:17:54.497Z,0.82
2017-02-09T08:18:35.673Z,0.82
2017-02-09T08:19:16.791Z,0.96
2017-02-09T08:19:58.077Z,0.91
2017-02-09T08:20:41.176Z,0.91
2017-02-09T08:21:24.323Z,0.92
2017-02-09T08:22:05.530Z,1.06
2017-02-09T08:22:45.931Z,1.06
2017-02-09T08:23:27.829Z,1.09
2017-02-09T08:24:08.280Z,1.18
2017-02-09T08:24:49.337Z,1.25
2017-02-09T08:25:29.712Z,1.3
2017-02-09T08:26:10.138Z,1.32
2017-02-09T08:26:52.407Z,1.48
2017-02-09T08:27:36.154Z,1.53
2017-02-09T08:28:16.578Z,1.66
2017-02-09T08:28:57.690Z,1.76
2017-02-09T08:30:46.152Z,1.79
2017-02-09T08:31:28.769Z,1.97
2017-02-09T08:32:10.896Z,2.05
2017-02-09T08:32:52.858Z,2.14
2017-02-09T08:33:33.747Z,2.23
2017-02-09T08:34:14.122Z,2.32
2017-02-09T08:34:55.085Z,2.23
2017-02-09T08:35:35.571Z,2.36
2017-02-09T08:36:16.966Z,2.39
2017-02-09T08:36:59.251Z,2.55
2017-02-09T08:37:41.225Z,2.52
2017-02-09T08:38:23.241Z,2.52
2017-02-09T08:39:03.764Z,2.57
2017-02-09T08:39:45.843Z,2.61
2017-02-09T08:40:27.047Z,2.7
2017-02-09T08:41:08.504Z,2.82
2017-02-09T08:41:51.314Z,2.73
2017-02-09T08:42:35.757Z,2.82
2017-02-09T08:43:17.779Z,2.75
2017-02-09T08:43:58.147Z,2.83
2017-02-09T08:47:20.118Z,2.8
2017-02-09T08:48:04.964Z,3.03
2017-02-09T08:48:45.723Z,3.08
2017-02-09T08:49:26.208Z,3.16
2017-02-09T08:50:06.681Z,3.11
2017-02-09T08:50:47.311Z,3.26
2017-02-09T08:51:27.718Z,3.22
2017-02-09T08:52:08.193Z,3.46
2017-02-09T08:52:49.731Z,3.5
2017-02-09T08:53:32.555Z,3.55
2017-02-09T08:54:16.747Z,3.59
2017-02-09T08:55:01.545Z,3.66
2017-02-09T08:55:44.511Z,3.77
2017-02-09T08:56:25.741Z,3.77
2017-02-09T08:57:08.525Z,3.88
2017-02-09T08:57:48.927Z,3.77
2017-02-09T08:58:30.307Z,3.78
2017-02-09T08:59:16.134Z,3.88
2017-02-09T08:59:58.199Z,3.86
2017-02-09T09:00:39.197Z,3.92
2017-02-09T09:01:21.346Z,4.18
2017-02-09T09:02:03.107Z,4.16
2017-02-09T09:02:46.305Z,4.32
2017-02-09T09:03:28.077Z,4.49
2017-02-09T09:04:09.131Z,4.68
2017-02-09T09:04:49.591Z,4.79
2017-02-09T09:05:30.544Z,4.9
2017-02-09T09:06:12.061Z,5.07
2017-02-09T09:06:53.824Z,5.16
2017-02-09T09:07:36.760Z,5.37
2017-02-09T09:08:18.209Z,5.49
2017-02-09T09:09:04.141Z,5.56
2017-02-09T09:09:44.520Z,5.76
2017-02-09T09:10:30.699Z,5.81
2017-02-09T09:11:11.717Z,5.83
2017-02-09T09:11:52.232Z,5.95
2017-02-09T09:12:32.680Z,6.02
2017-02-09T09:13:13.173Z,6.1
2017-02-09T09:13:55.097Z,6.15
2017-02-09T09:14:38.093Z,6.46
2017-02-09T09:15:18.489Z,6.65
2017-02-09T09:15:58.829Z,6.77
2017-02-09T09:16:39.856Z,6.92
2017-02-09T09:17:23.683Z,6.95
2017-02-09T09:18:07.733Z,7.25
2017-02-09T09:18:50.078Z,7.43
2017-02-09T09:19:32.074Z,7.67
2017-02-09T09:20:13.142Z,7.9
2017-02-09T09:20:55.098Z,8.06
2017-02-09T09:21:36.242Z,8.08
2017-02-09T09:23:51.878Z,8.56
2017-02-09T09:24:36.684Z,8.69
2017-02-09T09:25:18.764Z,8.77
2017-02-09T09:26:02.921Z,8.78
2017-02-09T09:26:44.058Z,8.77
2017-02-09T09:27:25.062Z,8.59
2017-02-09T09:31:31.346Z,9.19
2017-02-09T09:33:32.175Z,8.99
2017-02-09T09:34:16.845Z,9.05
2017-02-09T09:34:56.530Z,9.02
2017-02-09T09:35:36.935Z,9.16
2017-02-09T09:36:17.423Z,9.19
2017-02-09T09:36:57.784Z,9.4
2017-02-09T09:37:40.041Z,9.42
2017-02-09T09:38:20.482Z,9.55
2017-02-09T09:39:00.899Z,9.54
2017-02-09T09:39:42.194Z,9.58
2017-02-09T09:40:23.107Z,9.56
2017-02-09T09:41:03.490Z,9.74
2017-02-09T09:41:43.935Z,9.73
2017-02-09T09:42:24.294Z,9.74
2017-02-09T09:43:04.704Z,9.8
2017-02-09T09:43:45.901Z,9.82
2017-02-09T09:44:27.429Z,9.76
2017-02-09T09:46:41.580Z,10.02
2017-02-09T09:47:24.815Z,10.03
2017-02-09T09:48:07.993Z,10.09
2017-02-09T09:48:48.416Z,10.05
2017-02-09T09:49:28.811Z,10.03
2017-02-09T09:50:09.938Z,9.87
2017-02-09T09:50:50.372Z,9.73
2017-02-09T09:51:30.862Z,9.63
2017-02-09T09:53:46.862Z,9.08
2017-02-09T09:54:31.523Z,8.93
2017-02-09T09:55:13.256Z,8.79
2017-02-09T09:55:55.198Z,8.66
2017-02-09T09:56:37.127Z,8.6
2017-02-09T09:58:26.564Z,8.05
2017-02-09T09:59:09.082Z,7.81
2017-02-09T09:59:48.857Z,7.62
2017-02-09T10:00:30.070Z,7.39
2017-02-09T10:01:10.429Z,7.25
2017-02-09T10:01:50.929Z,7.13
2017-02-09T10:02:32.314Z,7.07
2017-02-09T10:03:14.291Z,6.89
2017-02-09T10:03:54.725Z,6.87
2017-02-09T10:06:08.205Z,6.75
2017-02-09T10:08:08.278Z,6.74
2017-02-09T10:08:50.011Z,6.83
2017-02-09T10:12:39.124Z,6.9
2017-02-09T10:13:22.746Z,6.83
2017-02-09T10:14:04.977Z,6.9
2017-02-09T10:14:46.270Z,6.9
2017-02-09T10:15:27.000Z,7
2017-02-09T10:16:07.898Z,6.96
2017-02-09T10:16:48.479Z,7.04
2017-02-09T10:17:28.932Z,7.07
2017-02-09T10:18:09.508Z,7.04
2017-02-09T10:18:51.813Z,7.21
2017-02-09T10:19:32.545Z,7.23
2017-02-09T10:20:13.067Z,7.21
2017-02-09T10:20:55.451Z,7.22
2017-02-09T10:21:35.800Z,7.26
2017-02-09T10:22:16.579Z,7.32
2017-02-09T10:23:00.396Z,7.47
2017-02-09T10:26:21.554Z,7.25
2017-02-09T10:29:56.640Z,6.9
2017-02-09T10:31:35.047Z,6.89
2017-02-09T10:32:18.421Z,6.9
2017-02-09T10:32:59.328Z,6.85
2017-02-09T10:33:39.741Z,6.85
2017-02-09T10:34:21.920Z,6.87
2017-02-09T10:35:02.310Z,6.89
2017-02-09T10:35:42.716Z,7
2017-02-09T10:36:23.149Z,7.03
2017-02-09T10:37:03.532Z,7.04
2017-02-09T10:37:44.848Z,7.05
2017-02-09T10:38:25.931Z,7.1
2017-02-09T10:39:07.094Z,7.05
2017-02-09T10:39:49.135Z,7.08
2017-02-09T10:40:30.174Z,6.92
2017-02-09T10:41:11.133Z,6.9
2017-02-09T10:41:54.481Z,6.87
2017-02-09T10:42:35.539Z,6.78
2017-02-09T10:43:19.526Z,6.77
2017-02-09T10:44:06.498Z,6.83
2017-02-09T10:44:47.533Z,6.75
2017-02-09T10:45:33.390Z,6.68
2017-02-09T10:49:23.975Z,6.75
2017-02-09T10:51:43.111Z,6.75
2017-02-09T10:52:28.082Z,6.8
2017-02-09T10:53:11.093Z,6.89
2017-02-09T10:53:52.259Z,6.97
2017-02-09T10:54:36.046Z,7.05
2017-02-09T10:55:17.192Z,7.05
2017-02-09T10:56:01.541Z,7.22
2017-02-09T10:56:42.017Z,7.29
2017-02-09T10:57:22.450Z,7.33
2017-02-09T10:58:08.251Z,7.47
2017-02-09T10:58:49.307Z,7.53
2017-02-09T10:59:33.555Z,7.58
2017-02-09T11:00:15.654Z,7.69
2017-02-09T11:00:56.161Z,7.74
2017-02-09T11:01:38.086Z,7.67
2017-02-09T11:02:18.513Z,7.81
2017-02-09T11:03:00.045Z,7.64
2017-02-09T11:03:42.201Z,7.84
2017-02-09T11:04:25.085Z,7.95
2017-02-09T11:05:07.083Z,7.91
2017-02-09T11:05:47.545Z,7.98
2017-02-09T11:06:29.894Z,8.01
2017-02-09T11:07:10.345Z,8.08
2017-02-09T11:07:51.575Z,8.11
2017-02-09T11:08:37.550Z,8.09
2017-02-09T11:09:24.646Z,8.16
2017-02-09T11:10:05.950Z,8.18
2017-02-09T11:10:47.822Z,8.17
2017-02-09T11:11:28.221Z,8.23
2017-02-09T11:12:15.215Z,8.34
2017-02-09T11:12:56.572Z,8.39
2017-02-09T11:13:37.635Z,8.5
2017-02-09T11:14:23.735Z,8.53
2017-02-09T11:15:05.628Z,8.57
2017-02-09T11:15:46.179Z,8.81
2017-02-09T11:16:27.342Z,8.78
2017-02-09T11:17:13.687Z,8.95
2017-02-09T11:17:55.687Z,9.15
2017-02-09T11:18:37.558Z,9.27
2017-02-09T11:20:52.424Z,9.45
2017-02-09T11:24:26.370Z,10.02
2017-02-09T11:25:09.046Z,10.07
2017-02-09T11:25:50.447Z,10.03
2017-02-09T11:26:34.634Z,10.17
2017-02-09T11:27:16.980Z,10.36
2017-02-09T11:27:59.145Z,10.45
2017-02-09T11:28:53.091Z,10.41
2017-02-09T11:29:33.747Z,10.3
2017-02-09T11:30:15.559Z,10.18
2017-02-09T11:30:56.976Z,10.03
2017-02-09T11:31:37.959Z,9.99
2017-02-09T11:32:18.413Z,9.91
2017-02-09T11:32:58.836Z,10.06
2017-02-09T11:33:39.233Z,9.99
2017-02-09T11:34:19.889Z,10.06
2017-02-09T11:35:00.300Z,10.05
2017-02-09T11:35:41.206Z,10.05
2017-02-09T11:36:21.650Z,10.06
2017-02-09T11:37:02.549Z,10
2017-02-09T11:37:42.989Z,10
2017-02-09T11:38:23.386Z,10.02
2017-02-09T11:39:07.475Z,9.94
2017-02-09T11:39:49.743Z,9.87
2017-02-09T11:40:30.133Z,9.82
2017-02-09T11:41:10.638Z,9.81
2017-02-09T11:41:51.006Z,9.92
2017-02-09T11:42:31.416Z,10.05
2017-02-09T11:43:11.838Z,10.25
2017-02-09T11:43:53.059Z,10.41
2017-02-09T11:44:34.312Z,10.41
2017-02-09T11:45:17.991Z,10.55
2017-02-09T11:45:58.454Z,10.51
2017-02-09T11:46:39.707Z,10.55
2017-02-09T11:47:20.758Z,10.59
2017-02-09T11:48:01.176Z,10.58
2017-02-09T11:48:46.092Z,10.51
2017-02-09T11:49:26.575Z,10.48
2017-02-09T11:50:08.588Z,10.31
2017-02-09T11:50:49.496Z,10.23
2017-02-09T11:51:29.992Z,10.12
2017-02-09T11:52:12.068Z,10.03
2017-02-09T11:52:54.474Z,9.91
2017-02-09T11:53:35.032Z,9.87
2017-02-09T12:02:05.597Z,9.22
2017-02-09T12:02:51.181Z,9.15
2017-02-09T12:03:31.527Z,9.27
2017-02-09T12:04:29.346Z,9.26
2017-02-09T12:05:13.395Z,9.3
2017-02-09T12:07:33.010Z,9.36
2017-02-09T12:08:18.325Z,9.42
2017-02-09T12:16:57.468Z,9.85
2017-02-09T12:23:16.367Z,9.15
2017-02-09T12:27:09.213Z,9.15
2017-02-09T12:27:53.154Z,9.08
2017-02-09T12:28:34.670Z,9.03
2017-02-09T12:29:18.961Z,8.95
2017-02-09T12:30:01.972Z,8.89
2017-02-09T12:35:27.131Z,8.13
2017-02-09T12:36:09.785Z,7.98
2017-02-09T12:36:50.378Z,7.72
2017-02-09T12:37:31.220Z,7.51
2017-02-09T12:38:11.636Z,7.48
2017-02-09T12:38:52.297Z,7.48
2017-02-09T12:39:32.853Z,7.36
2017-02-09T12:40:13.368Z,7.25
2017-02-09T12:40:54.280Z,7.28
2017-02-09T12:41:36.087Z,7.22
2017-02-09T12:42:21.257Z,7.23
2017-02-09T12:43:02.714Z,7.25
2017-02-09T12:43:43.288Z,7.19
2017-02-09T12:44:25.305Z,7.18
2017-02-09T12:45:06.285Z,7.07
2017-02-09T12:45:48.215Z,7.01
2017-02-09T12:46:28.717Z,7
2017-02-09T12:47:09.196Z,7.07
2017-02-09T12:50:58.996Z,6.82
2017-02-09T12:52:49.435Z,6.87
2017-02-09T12:56:38.392Z,6.59
2017-02-09T13:09:07.994Z,6.8
2017-02-09T13:09:50.716Z,6.59
2017-02-09T13:10:34.601Z,6.46
2017-02-09T13:11:18.814Z,6.54
2017-02-09T13:15:10.748Z,5.98
2017-02-09T13:15:55.514Z,5.92
2017-02-09T13:16:36.378Z,5.84
2017-02-09T13:17:21.789Z,5.77
2017-02-09T13:18:03.550Z,5.79
2017-02-09T13:27:40.249Z,5.92
2017-02-09T13:29:21.240Z,5.98
2017-02-09T13:31:12.614Z,5.92
2017-02-09T13:33:05.597Z,5.98
2017-02-09T13:33:50.729Z,5.99
2017-02-09T14:11:10.911Z,4.45
2017-02-09T14:22:55.252Z,4.24
2017-02-09T14:23:38.812Z,4.14
2017-02-09T14:25:51.931Z,4.14
2017-02-09T14:26:35.955Z,4.14
2017-02-09T14:27:16.091Z,4.1
2017-02-09T14:27:58.244Z,4.21
2017-02-09T14:28:38.634Z,4.18
2017-02-09T14:29:22.889Z,4.14
2017-02-09T14:31:38.787Z,4.1
2017-02-09T14:32:22.894Z,4.04
2017-02-09T14:33:13.845Z,4.18
2017-02-09T14:33:56.087Z,4.16
2017-02-09T14:34:36.621Z,4.03
2017-02-09T14:42:43.419Z,3.86
2017-02-09T14:43:25.850Z,3.85
2017-02-09T14:44:09.986Z,3.82
2017-02-09T14:44:52.324Z,3.68
2017-02-09T14:45:42.112Z,3.7
2017-02-09T14:46:27.203Z,3.74
2017-02-09T14:47:11.167Z,3.76
2017-02-09T14:48:01.266Z,3.63
2017-02-09T14:51:24.032Z,3.48
2017-02-09T14:54:44.108Z,3.3
2017-02-09T14:55:27.650Z,3.3
2017-02-09T14:56:07.949Z,3.26
2017-02-09T14:56:48.487Z,3.21
2017-02-09T14:57:31.689Z,3.19
2017-02-09T14:58:14.501Z,3.11
2017-02-09T14:59:02.737Z,3.15
2017-02-09T14:59:50.615Z,3.08
2017-02-09T15:00:32.821Z,3.15
2017-02-09T15:04:19.142Z,3.19
2017-02-09T15:05:58.735Z,3.08
2017-02-09T15:06:43.613Z,3
2017-02-09T15:07:30.595Z,3.15
2017-02-09T15:08:11.142Z,3.15
2017-02-09T15:08:51.552Z,3.03
2017-02-09T15:09:37.464Z,3.06
2017-02-09T15:21:03.392Z,2.94
2017-02-09T15:21:45.528Z,3
2017-02-09T15:25:06.832Z,3
2017-02-09T15:25:50.468Z,3
2017-02-09T15:28:11.600Z,2.91
2017-02-09T15:33:19.733Z,2.94
2017-02-09T15:34:04.239Z,2.8
2017-02-09T15:34:45.343Z,2.9
2017-02-09T15:35:26.006Z,2.85
2017-02-09T15:36:07.784Z,2.88
2017-02-09T15:37:00.703Z,2.82
2017-02-09T15:37:44.673Z,2.85
2017-02-09T15:38:26.708Z,2.85
2017-02-09T15:39:09.721Z,2.8
2017-02-09T15:39:52.906Z,2.77
2017-02-09T15:40:35.237Z,2.76
2017-02-09T15:41:25.220Z,2.75
2017-02-09T15:42:07.330Z,2.72
2017-02-09T15:42:52.384Z,2.7
2017-02-09T15:43:34.797Z,2.68
2017-02-09T15:44:16.282Z,2.64
2017-02-09T15:44:57.504Z,2.65
2017-02-09T15:45:42.306Z,2.62
2017-02-09T15:46:24.518Z,2.65
2017-02-09T15:47:07.865Z,2.68
2017-02-09T15:47:48.378Z,2.7
2017-02-09T15:48:30.343Z,2.7
2017-02-09T15:49:15.415Z,2.7
2017-02-09T15:50:00.327Z,2.65
2017-02-09T15:50:43.425Z,2.62
2017-02-09T15:51:24.835Z,2.7
2017-02-09T15:52:12.734Z,2.68
2017-02-09T15:52:55.123Z,2.69
2017-02-09T15:53:46.701Z,2.68
2017-02-09T15:54:31.852Z,2.64
2017-02-09T15:56:48.327Z,2.64
2017-02-09T15:57:33.376Z,2.61
2017-02-09T15:58:13.733Z,2.69
2017-02-09T15:58:54.268Z,2.65
2017-02-09T15:59:34.721Z,2.7
2017-02-09T16:00:16.776Z,2.73
2017-02-09T16:00:57.809Z,2.61
2017-02-09T16:01:39.720Z,2.64
2017-02-09T16:02:20.060Z,2.73
2017-02-09T16:03:00.481Z,2.73
2017-02-09T16:03:40.870Z,2.76
2017-02-09T16:04:22.144Z,2.73
2017-02-09T16:05:02.536Z,2.7
2017-02-09T16:05:42.961Z,2.69
2017-02-09T16:06:24.127Z,2.64
2017-02-09T16:07:04.603Z,2.64
2017-02-09T16:07:46.079Z,2.64
2017-02-09T16:08:28.307Z,2.65
2017-02-09T16:09:08.793Z,2.55
2017-02-09T16:09:49.179Z,2.58
2017-02-09T16:10:29.992Z,2.7
2017-02-09T16:11:10.139Z,2.55
2017-02-09T16:11:50.597Z,2.58
2017-02-09T16:12:31.018Z,2.57
2017-02-09T16:13:11.419Z,2.65
2017-02-09T16:13:51.849Z,2.64
2017-02-09T16:14:32.403Z,2.57
2017-02-09T16:15:12.633Z,2.58
2017-02-09T16:15:54.000Z,2.61
2017-02-09T16:16:35.323Z,2.59
2017-02-09T16:17:16.422Z,2.64
2017-02-09T16:17:56.837Z,2.61
2017-02-09T16:18:38.031Z,2.52
2017-02-09T16:19:19.363Z,2.55
2017-02-09T16:19:59.785Z,2.59
2017-02-09T16:20:41.163Z,2.52
2017-02-09T16:21:21.561Z,2.39
2017-02-09T16:22:02.044Z,2.47
2017-02-09T16:22:42.420Z,2.55
2017-02-09T16:23:22.852Z,2.52
2017-02-09T16:25:37.598Z,2.5
2017-02-09T16:26:20.446Z,2.43
2017-02-09T16:27:00.897Z,2.44
2017-02-09T16:27:41.330Z,2.51
2017-02-09T16:28:23.291Z,2.51
2017-02-09T16:29:04.366Z,2.46
2017-02-09T16:29:46.566Z,2.5
2017-02-09T16:30:27.031Z,2.52
2017-02-09T16:31:08.524Z,2.44
2017-02-09T16:31:48.906Z,2.5
2017-02-09T16:32:29.255Z,2.39
2017-02-09T16:33:10.295Z,2.41
2017-02-09T16:33:50.708Z,2.39
2017-02-09T16:34:32.070Z,2.4
2017-02-09T16:35:13.996Z,2.37
2017-02-09T16:35:54.479Z,2.4
2017-02-09T16:36:34.987Z,2.5
2017-02-09T16:37:17.114Z,2.37
2017-02-09T16:37:57.599Z,2.4
2017-02-09T16:38:37.972Z,2.43
2017-02-09T16:39:19.284Z,2.4
2017-02-09T16:40:01.443Z,2.43
2017-02-09T16:40:41.688Z,2.39
2017-02-09T16:41:22.153Z,2.37
2017-02-09T16:42:03.048Z,2.5
2017-02-09T16:42:44.178Z,2.41
2017-02-09T16:43:24.554Z,2.44
2017-02-09T16:44:05.963Z,2.4
2017-02-09T16:44:46.338Z,2.39
2017-02-09T16:45:26.835Z,2.37
2017-02-09T16:46:07.194Z,2.34
2017-02-09T16:46:47.571Z,2.37
2017-02-09T16:47:28.055Z,2.36
2017-02-09T16:48:08.636Z,2.26
2017-02-09T16:48:49.027Z,2.34
2017-02-09T16:49:29.355Z,2.26
2017-02-09T16:50:09.753Z,2.39
2017-02-09T16:50:50.365Z,2.26
2017-02-09T16:51:30.845Z,2.26
2017-02-09T16:52:10.995Z,2.26
2017-02-09T16:52:51.397Z,2.32
2017-02-09T16:53:31.948Z,2.25
2017-02-09T16:54:12.479Z,2.28
2017-02-09T16:54:55.496Z,2.28
2017-02-09T16:55:36.486Z,2.26
2017-02-09T16:56:17.846Z,2.22
2017-02-09T16:58:30.751Z,2.25
2017-02-09T16:59:11.817Z,2.25
2017-02-09T16:59:52.257Z,2.32
2017-02-09T17:00:33.485Z,2.23
2017-02-09T17:01:16.060Z,2.22
2017-02-09T17:01:58.239Z,2.25
2017-02-09T17:04:18.482Z,2.23
2017-02-09T17:05:02.368Z,2.3
2017-02-09T17:05:49.658Z,2.32
2017-02-09T17:12:20.536Z,2.3
2017-02-09T17:13:03.856Z,2.25
2017-02-09T17:14:53.163Z,2.21
2017-02-09T17:15:35.935Z,2.15
2017-02-09T17:17:49.932Z,2.05
2017-02-09T17:18:31.815Z,2.07
2017-02-09T17:20:45.903Z,2.03
2017-02-09T17:21:26.827Z,2.12
2017-02-09T17:22:07.250Z,2.07